createdAt,value
2022-07-26T00:01:40.283Z,21.04
2022-07-26T00:04:08.677Z,21.03
2022-07-26T00:06:36.758Z,21.03
2022-07-26T00:09:11.147Z,21.03
2022-07-26T00:12:05.278Z,21.03
2022-07-26T00:14:34.657Z,21.03
2022-07-26T00:17:04.470Z,21.02
2022-07-26T00:19:35.572Z,21.04
2022-07-26T00:22:20.912Z,21.06
2022-07-26T00:24:56.437Z,21.05
2022-07-26T00:27:25.216Z,21.08
2022-07-26T00:29:55.118Z,21.11
2022-07-26T00:32:23.093Z,21.12
2022-07-26T00:34:56.972Z,21.11
2022-07-26T00:37:25.005Z,21.08
2022-07-26T00:39:52.956Z,21.12
2022-07-26T00:42:20.865Z,21.13
2022-07-26T00:44:49.698Z,21.10
2022-07-26T00:47:19.049Z,21.05
2022-07-26T00:49:47.135Z,21.04
2022-07-26T00:52:15.115Z,21.03
2022-07-26T00:54:45.912Z,21.03
2022-07-26T00:57:15.760Z,21.01
2022-07-26T00:59:43.923Z,21.04
2022-07-26T01:02:12.505Z,21.05
2022-07-26T01:04:44.272Z,21.07
2022-07-26T01:07:15.123Z,21.04
2022-07-26T01:09:44.249Z,20.97
2022-07-26T01:12:12.749Z,21.10
2022-07-26T01:14:52.231Z,21.10
2022-07-26T01:17:20.203Z,21.03
2022-07-26T01:19:52.638Z,21.04
2022-07-26T01:22:21.977Z,20.99
2022-07-26T01:24:56.072Z,20.96
2022-07-26T01:27:24.145Z,20.92
2022-07-26T01:29:54.961Z,20.89
2022-07-26T01:32:22.921Z,20.84
2022-07-26T01:34:51.088Z,20.83
2022-07-26T01:37:19.358Z,20.82
2022-07-26T01:39:56.328Z,20.79
2022-07-26T01:42:24.369Z,20.77
2022-07-26T01:44:52.254Z,20.76
2022-07-26T01:50:04.590Z,20.74
2022-07-26T01:52:35.690Z,20.72
2022-07-26T01:55:43.983Z,20.75
2022-07-26T01:58:22.685Z,20.69
2022-07-26T02:00:51.557Z,20.66
2022-07-26T02:03:19.754Z,20.63
2022-07-26T02:05:47.803Z,20.65
2022-07-26T02:08:15.893Z,20.63
2022-07-26T02:11:04.044Z,20.62
2022-07-26T02:13:40.705Z,20.62
2022-07-26T02:16:10.555Z,20.57
2022-07-26T02:18:40.459Z,20.56
2022-07-26T02:21:09.134Z,20.53
2022-07-26T02:23:41.292Z,20.57
2022-07-26T02:26:13.240Z,20.56
2022-07-26T02:28:45.312Z,20.59
2022-07-26T02:31:15.407Z,20.54
2022-07-26T02:33:49.782Z,20.55
2022-07-26T02:36:17.522Z,20.53
2022-07-26T02:38:45.432Z,20.56
2022-07-26T02:41:13.285Z,20.56
2022-07-26T02:43:43.897Z,20.57
2022-07-26T02:46:15.498Z,20.58
2022-07-26T02:48:46.206Z,20.59
2022-07-26T02:51:14.229Z,20.58
2022-07-26T02:53:42.380Z,20.55
2022-07-26T02:56:16.255Z,20.58
2022-07-26T02:58:44.184Z,20.54
2022-07-26T03:01:35.957Z,20.53
2022-07-26T03:04:04.567Z,20.51
2022-07-26T03:06:35.687Z,20.52
2022-07-26T03:09:04.627Z,20.50
2022-07-26T03:11:32.567Z,20.48
2022-07-26T03:14:00.535Z,20.45
2022-07-26T03:16:37.503Z,20.41
2022-07-26T03:19:06.877Z,20.34
2022-07-26T03:21:40.904Z,20.41
2022-07-26T03:24:08.932Z,20.36
2022-07-26T03:26:43.165Z,20.35
2022-07-26T03:29:13.300Z,20.33
2022-07-26T03:31:41.383Z,20.33
2022-07-26T03:34:11.194Z,20.37
2022-07-26T03:36:39.416Z,20.40
2022-07-26T03:39:09.861Z,20.38
2022-07-26T03:41:37.822Z,20.43
2022-07-26T03:44:09.776Z,20.38
2022-07-26T03:46:41.021Z,20.38
2022-07-26T03:49:16.627Z,20.30
2022-07-26T03:51:45.285Z,20.28
2022-07-26T03:54:13.453Z,20.24
2022-07-26T03:56:40.662Z,20.20
2022-07-26T03:59:10.622Z,20.20
2022-07-26T04:01:41.998Z,20.19
2022-07-26T04:04:15.559Z,20.21
2022-07-26T04:06:48.840Z,20.22
2022-07-26T04:09:22.009Z,20.22
2022-07-26T04:11:49.961Z,20.20
2022-07-26T04:14:17.854Z,20.20
2022-07-26T04:16:46.473Z,20.17
2022-07-26T04:19:20.906Z,20.19
2022-07-26T04:21:48.863Z,20.23
2022-07-26T04:24:17.406Z,20.28
2022-07-26T04:26:46.388Z,20.27
2022-07-26T04:29:17.101Z,20.28
2022-07-26T04:31:48.068Z,20.30
2022-07-26T04:34:17.408Z,20.20
2022-07-26T04:36:45.366Z,20.22
2022-07-26T04:39:13.314Z,20.23
2022-07-26T04:41:41.436Z,20.29
2022-07-26T04:44:09.807Z,20.30
2022-07-26T04:46:45.212Z,20.29
2022-07-26T04:49:18.457Z,20.23
2022-07-26T04:51:48.146Z,20.16
2022-07-26T04:54:20.634Z,20.12
2022-07-26T04:56:48.777Z,20.11
2022-07-26T04:59:21.688Z,20.10
2022-07-26T05:01:52.211Z,20.10
2022-07-26T05:04:21.534Z,20.11
2022-07-26T05:06:50.441Z,20.15
2022-07-26T05:09:18.395Z,20.21
2022-07-26T05:11:46.477Z,20.21
2022-07-26T05:14:17.228Z,20.28
2022-07-26T05:16:45.581Z,20.34
2022-07-26T05:19:14.033Z,20.37
2022-07-26T05:21:43.425Z,20.27
2022-07-26T05:24:11.717Z,20.46
2022-07-26T05:26:39.948Z,20.40
2022-07-26T05:29:11.631Z,20.37
2022-07-26T05:31:39.615Z,20.40
2022-07-26T05:34:08.220Z,20.44
2022-07-26T05:36:39.169Z,20.53
2022-07-26T05:39:11.700Z,20.53
2022-07-26T05:41:44.727Z,20.63
2022-07-26T05:44:12.780Z,20.70
2022-07-26T05:46:40.942Z,20.80
2022-07-26T05:49:09.063Z,20.81
2022-07-26T05:51:39.312Z,20.67
2022-07-26T05:54:11.432Z,20.98
2022-07-26T05:56:40.051Z,20.85
2022-07-26T05:59:10.738Z,20.92
2022-07-26T06:01:39.467Z,20.95
2022-07-26T06:04:09.360Z,21.01
2022-07-26T06:06:37.552Z,21.07
2022-07-26T06:09:05.661Z,21.07
2022-07-26T06:11:37.754Z,21.15
2022-07-26T06:14:15.481Z,21.25
2022-07-26T06:16:46.627Z,21.49
2022-07-26T06:19:14.644Z,21.50
2022-07-26T06:21:45.571Z,21.51
2022-07-26T06:24:13.633Z,21.63
2022-07-26T06:26:42.979Z,21.89
2022-07-26T06:29:11.021Z,22.51
2022-07-26T06:31:40.577Z,22.80
2022-07-26T06:34:09.982Z,22.84
2022-07-26T06:36:52.451Z,22.51
2022-07-26T06:39:23.258Z,22.52
2022-07-26T06:41:52.565Z,22.82
2022-07-26T06:44:29.216Z,23.03
2022-07-26T06:46:57.235Z,22.82
2022-07-26T06:49:25.193Z,22.91
2022-07-26T06:51:53.259Z,22.75
2022-07-26T06:54:23.955Z,22.53
2022-07-26T06:56:53.317Z,22.47
2022-07-26T06:59:21.287Z,22.63
2022-07-26T07:01:59.563Z,22.57
2022-07-26T07:04:29.289Z,22.45
2022-07-26T07:07:04.493Z,22.53
2022-07-26T07:09:35.602Z,22.49
2022-07-26T07:12:10.122Z,22.55
2022-07-26T07:14:39.072Z,22.29
2022-07-26T07:17:19.864Z,22.14
2022-07-26T07:19:48.624Z,22.26
2022-07-26T07:22:16.709Z,22.42
2022-07-26T07:24:52.059Z,22.78
2022-07-26T07:27:21.441Z,23.02
2022-07-26T07:29:49.371Z,23.03
2022-07-26T07:32:18.693Z,23.00
2022-07-26T07:34:50.743Z,23.12
2022-07-26T07:37:20.256Z,23.13
2022-07-26T07:39:49.983Z,22.82
2022-07-26T07:42:19.280Z,22.51
2022-07-26T07:44:50.860Z,22.37
2022-07-26T07:49:46.885Z,22.38
2022-07-26T07:52:14.851Z,22.47
2022-07-26T07:55:02.185Z,22.46
2022-07-26T07:57:40.166Z,22.44
2022-07-26T08:00:34.645Z,22.69
2022-07-26T08:03:11.025Z,22.78
2022-07-26T08:05:40.390Z,22.90
2022-07-26T08:08:08.893Z,22.93
2022-07-26T08:10:38.705Z,23.19
2022-07-26T08:13:11.723Z,23.54
2022-07-26T08:15:41.009Z,23.65
2022-07-26T08:18:08.949Z,23.49
2022-07-26T08:20:41.558Z,23.07
2022-07-26T08:23:16.972Z,22.66
2022-07-26T08:25:55.598Z,22.27
2022-07-26T08:28:46.189Z,22.01
2022-07-26T08:31:16.196Z,21.89
2022-07-26T08:33:47.661Z,21.22
2022-07-26T08:36:16.672Z,20.60
2022-07-26T08:38:48.063Z,20.40
2022-07-26T08:41:19.420Z,20.08
2022-07-26T08:43:53.080Z,19.95
2022-07-26T08:46:27.729Z,19.79
2022-07-26T08:48:56.782Z,19.40
2022-07-26T08:51:26.970Z,19.14
2022-07-26T08:54:03.990Z,18.92
2022-07-26T08:56:52.026Z,18.68
2022-07-26T08:59:22.685Z,18.60
2022-07-26T09:02:07.457Z,18.74
2022-07-26T09:04:43.590Z,18.77
2022-07-26T09:07:15.384Z,18.75
2022-07-26T09:10:01.455Z,18.67
2022-07-26T09:12:30.678Z,18.67
2022-07-26T09:14:59.262Z,18.63
2022-07-26T09:17:42.837Z,18.62
2022-07-26T09:20:13.693Z,18.72
2022-07-26T09:23:06.155Z,18.76
2022-07-26T09:25:36.190Z,18.78
2022-07-26T09:28:06.056Z,18.76
2022-07-26T09:30:34.450Z,18.84
2022-07-26T09:33:06.545Z,19.11
2022-07-26T09:35:50.925Z,19.29
2022-07-26T09:38:40.348Z,19.25
2022-07-26T09:41:20.524Z,19.27
2022-07-26T09:43:53.330Z,19.47
2022-07-26T09:46:22.881Z,19.87
2022-07-26T09:49:12.318Z,20.31
2022-07-26T09:51:45.698Z,20.37
2022-07-26T09:54:20.540Z,20.50
2022-07-26T09:56:55.899Z,20.69
2022-07-26T09:59:28.371Z,20.83
2022-07-26T10:01:58.319Z,21.05
2022-07-26T10:04:30.605Z,21.33
2022-07-26T10:06:58.966Z,21.59
2022-07-26T10:09:32.809Z,21.74
2022-07-26T10:12:04.151Z,21.53
2022-07-26T10:14:44.739Z,21.55
2022-07-26T10:17:48.084Z,21.58
2022-07-26T10:20:36.153Z,21.49
2022-07-26T10:23:38.713Z,21.48
2022-07-26T10:26:09.809Z,21.21
2022-07-26T10:28:40.185Z,20.91
2022-07-26T10:31:33.110Z,20.44
2022-07-26T10:34:07.600Z,20.40
2022-07-26T10:36:40.117Z,20.17
2022-07-26T10:39:15.592Z,20.17
2022-07-26T10:41:46.397Z,20.17
2022-07-26T10:44:26.064Z,19.99
2022-07-26T10:47:15.838Z,19.74
2022-07-26T10:49:56.379Z,19.65
2022-07-26T10:52:28.759Z,19.60
2022-07-26T10:55:21.757Z,19.78
2022-07-26T10:57:50.263Z,19.92
2022-07-26T11:00:26.417Z,19.91
2022-07-26T11:02:57.715Z,20.13
2022-07-26T11:05:31.318Z,20.48
2022-07-26T11:08:08.166Z,20.81
2022-07-26T11:10:39.265Z,21.25
2022-07-26T11:13:23.565Z,21.30
2022-07-26T11:15:54.215Z,21.30
2022-07-26T11:18:36.382Z,21.37
2022-07-26T11:21:13.522Z,21.54
2022-07-26T11:23:44.103Z,21.80
2022-07-26T11:26:25.764Z,21.98
2022-07-26T11:29:01.390Z,22.01
2022-07-26T11:31:50.738Z,22.18
2022-07-26T11:34:35.430Z,22.33
2022-07-26T11:37:07.037Z,22.40
2022-07-26T11:39:36.939Z,22.40
2022-07-26T11:42:09.007Z,22.45
2022-07-26T11:44:37.860Z,22.61
2022-07-26T11:47:14.566Z,22.64
2022-07-26T11:50:00.693Z,22.59
2022-07-26T11:52:32.491Z,22.47
2022-07-26T11:55:01.077Z,22.29
2022-07-26T11:57:32.738Z,22.48
2022-07-26T12:00:01.953Z,22.66
2022-07-26T12:02:41.043Z,22.90
2022-07-26T12:05:19.433Z,23.14
2022-07-26T12:08:02.786Z,23.28
2022-07-26T12:10:31.020Z,23.31
2022-07-26T12:13:14.401Z,23.18
2022-07-26T12:15:47.544Z,22.64
2022-07-26T12:18:26.401Z,22.13
2022-07-26T12:21:05.669Z,21.69
2022-07-26T12:23:49.306Z,21.52
2022-07-26T12:26:22.424Z,21.34
2022-07-26T12:29:21.417Z,21.22
2022-07-26T12:32:10.293Z,21.39
2022-07-26T12:34:58.189Z,21.83
2022-07-26T12:37:39.442Z,22.11
2022-07-26T12:40:11.614Z,22.18
2022-07-26T12:42:41.739Z,22.60
2022-07-26T12:45:15.095Z,23.07
2022-07-26T12:47:46.274Z,23.09
2022-07-26T12:50:16.058Z,22.76
2022-07-26T12:52:44.706Z,22.88
2022-07-26T12:55:21.934Z,22.91
2022-07-26T12:57:50.135Z,22.89
2022-07-26T13:00:25.564Z,23.15
2022-07-26T13:02:55.169Z,23.46
2022-07-26T13:05:23.619Z,23.47
2022-07-26T13:07:52.453Z,23.06
2022-07-26T13:10:36.377Z,23.05
2022-07-26T13:13:04.822Z,23.00
2022-07-26T13:15:39.760Z,23.04
2022-07-26T13:18:08.686Z,22.93
2022-07-26T13:20:38.187Z,22.85
2022-07-26T13:23:06.361Z,22.33
2022-07-26T13:25:39.591Z,22.12
2022-07-26T13:28:12.726Z,21.79
2022-07-26T13:30:48.398Z,21.71
2022-07-26T13:33:16.657Z,21.74
2022-07-26T13:35:44.778Z,21.53
2022-07-26T13:38:12.621Z,21.61
2022-07-26T13:40:40.802Z,21.47
2022-07-26T13:43:08.767Z,21.61
2022-07-26T13:45:39.095Z,21.67
2022-07-26T13:48:10.052Z,21.84
2022-07-26T13:50:41.048Z,22.00
2022-07-26T13:53:12.122Z,22.13
2022-07-26T13:55:40.921Z,22.04
2022-07-26T13:58:11.916Z,21.97
2022-07-26T14:00:43.844Z,22.07
2022-07-26T14:03:16.237Z,22.12
2022-07-26T14:05:48.233Z,22.34
2022-07-26T14:08:27.987Z,21.93
2022-07-26T14:10:55.960Z,21.93
2022-07-26T14:13:24.723Z,22.09
2022-07-26T14:15:52.682Z,22.02
2022-07-26T14:18:27.997Z,22.08
2022-07-26T14:20:56.022Z,22.15
2022-07-26T14:23:26.289Z,22.38
2022-07-26T14:25:54.368Z,22.48
2022-07-26T14:28:24.495Z,22.54
2022-07-26T14:30:52.907Z,22.60
2022-07-26T14:33:43.570Z,22.60
2022-07-26T14:36:19.197Z,22.74
2022-07-26T14:38:47.733Z,22.54
2022-07-26T14:41:18.078Z,22.47
2022-07-26T14:43:55.732Z,22.18
2022-07-26T14:46:23.828Z,22.19
2022-07-26T14:48:55.964Z,22.16
2022-07-26T14:51:26.765Z,22.17
2022-07-26T14:53:54.749Z,22.06
2022-07-26T14:56:25.762Z,22.14
2022-07-26T14:58:53.945Z,22.07
2022-07-26T15:01:22.080Z,21.83
2022-07-26T15:03:53.284Z,21.85
2022-07-26T15:06:21.300Z,22.12
2022-07-26T15:08:53.014Z,22.20
2022-07-26T15:11:23.398Z,22.16
2022-07-26T15:13:52.107Z,22.09
2022-07-26T15:16:20.990Z,22.13
2022-07-26T15:18:49.126Z,22.07
2022-07-26T15:21:43.845Z,21.90
2022-07-26T15:24:14.874Z,21.99
2022-07-26T15:27:08.853Z,22.11
2022-07-26T15:29:43.170Z,22.28
2022-07-26T15:32:13.590Z,22.23
2022-07-26T15:34:43.933Z,22.12
2022-07-26T15:37:30.328Z,22.09
2022-07-26T15:40:06.016Z,22.32
2022-07-26T15:42:34.077Z,22.58
2022-07-26T15:45:06.811Z,22.19
2022-07-26T15:47:53.600Z,22.11
2022-07-26T15:50:23.012Z,21.86
2022-07-26T15:52:52.465Z,21.81
2022-07-26T15:55:20.913Z,21.74
2022-07-26T15:57:48.954Z,21.67
2022-07-26T16:00:19.990Z,21.54
2022-07-26T16:02:50.828Z,21.42
2022-07-26T16:05:19.117Z,21.41
2022-07-26T16:07:48.162Z,21.10
2022-07-26T16:10:17.639Z,21.30
2022-07-26T16:12:45.559Z,21.36
2022-07-26T16:15:14.022Z,21.43
2022-07-26T16:17:42.024Z,21.21
2022-07-26T16:20:13.678Z,21.12
2022-07-26T16:22:41.964Z,21.55
2022-07-26T16:25:13.083Z,21.51
2022-07-26T16:27:45.933Z,21.46
2022-07-26T16:30:15.355Z,21.39
2022-07-26T16:32:45.873Z,21.20
2022-07-26T16:35:14.728Z,21.17
2022-07-26T16:37:45.472Z,21.29
2022-07-26T16:40:13.710Z,21.26
2022-07-26T16:42:49.065Z,21.30
2022-07-26T16:45:19.303Z,21.30
2022-07-26T16:47:47.262Z,21.41
2022-07-26T16:50:24.965Z,21.51
2022-07-26T16:52:55.930Z,21.32
2022-07-26T16:55:26.159Z,21.17
2022-07-26T16:57:57.656Z,21.25
2022-07-26T17:00:25.871Z,21.41
2022-07-26T17:02:53.854Z,21.34
2022-07-26T17:05:21.894Z,21.24
2022-07-26T17:07:52.510Z,21.10
2022-07-26T17:10:21.621Z,20.90
2022-07-26T17:12:51.773Z,20.84
2022-07-26T17:15:21.337Z,20.84
2022-07-26T17:17:50.077Z,20.70
2022-07-26T17:20:18.011Z,20.73
2022-07-26T17:22:53.479Z,20.85
2022-07-26T17:25:21.596Z,20.95
2022-07-26T17:27:52.279Z,21.06
2022-07-26T17:30:21.562Z,21.16
2022-07-26T17:32:51.608Z,21.21
2022-07-26T17:35:22.885Z,21.03
2022-07-26T17:37:55.460Z,21.00
2022-07-26T17:40:33.717Z,20.88
2022-07-26T17:43:01.596Z,20.80
2022-07-26T17:45:33.423Z,20.62
2022-07-26T17:48:06.121Z,20.40
2022-07-26T17:50:36.886Z,20.35
2022-07-26T17:53:06.647Z,20.29
2022-07-26T17:55:48.729Z,20.26
2022-07-26T17:58:19.081Z,20.29
2022-07-26T18:00:48.386Z,20.31
2022-07-26T18:03:16.271Z,20.26
2022-07-26T18:05:44.271Z,20.28
2022-07-26T18:08:27.184Z,20.23
2022-07-26T18:10:55.482Z,20.09
2022-07-26T18:13:23.948Z,20.11
2022-07-26T18:15:56.955Z,20.12
2022-07-26T18:18:25.287Z,20.16
2022-07-26T18:20:53.490Z,20.20
2022-07-26T18:23:21.494Z,20.16
2022-07-26T18:25:49.561Z,20.13
2022-07-26T18:28:17.537Z,20.11
2022-07-26T18:30:46.055Z,19.96
2022-07-26T18:33:26.460Z,19.95
2022-07-26T18:35:56.953Z,19.91
2022-07-26T18:38:25.157Z,19.90
2022-07-26T18:40:55.853Z,19.85
2022-07-26T18:43:24.101Z,19.74
2022-07-26T18:45:52.069Z,19.79
2022-07-26T18:48:29.711Z,19.80
2022-07-26T18:51:03.939Z,19.76
2022-07-26T18:53:41.073Z,19.68
2022-07-26T18:56:14.372Z,19.58
2022-07-26T18:58:43.353Z,19.40
2022-07-26T19:01:17.290Z,19.31
2022-07-26T19:03:46.677Z,19.25
2022-07-26T19:06:17.450Z,19.21
2022-07-26T19:08:45.400Z,19.21
2022-07-26T19:11:19.459Z,19.15
2022-07-26T19:13:51.686Z,19.11
2022-07-26T19:16:19.734Z,19.12
2022-07-26T19:18:58.036Z,19.14
2022-07-26T19:21:26.141Z,19.09
2022-07-26T19:23:54.290Z,19.04
2022-07-26T19:26:23.838Z,18.92
2022-07-26T19:28:52.065Z,18.86
2022-07-26T19:31:20.360Z,18.87
2022-07-26T19:33:51.410Z,18.84
2022-07-26T19:36:26.056Z,18.74
2022-07-26T19:38:56.593Z,18.63
2022-07-26T19:41:27.753Z,18.62
2022-07-26T19:43:56.245Z,18.68
2022-07-26T19:46:24.400Z,18.68
2022-07-26T19:48:56.772Z,18.77
2022-07-26T19:51:26.104Z,18.87
2022-07-26T19:53:57.099Z,18.91
2022-07-26T19:56:41.736Z,18.90
2022-07-26T19:59:09.911Z,18.79
2022-07-26T20:01:40.484Z,18.72
2022-07-26T20:04:08.406Z,18.69
2022-07-26T20:06:40.547Z,18.61
2022-07-26T20:09:08.740Z,18.55
2022-07-26T20:11:37.035Z,18.39
2022-07-26T20:14:04.955Z,18.40
2022-07-26T20:16:33.404Z,18.19
2022-07-26T20:19:03.552Z,18.15
2022-07-26T20:21:31.836Z,18.14
2022-07-26T20:24:01.212Z,18.13
2022-07-26T20:26:29.063Z,18.08
2022-07-26T20:28:58.164Z,18.08
2022-07-26T20:31:26.143Z,18.15
2022-07-26T20:33:54.162Z,18.18
2022-07-26T20:36:22.240Z,18.22
2022-07-26T20:38:51.781Z,18.21
2022-07-26T20:41:24.310Z,18.16
2022-07-26T20:43:56.812Z,18.13
2022-07-26T20:46:25.025Z,18.08
2022-07-26T20:48:54.477Z,17.96
2022-07-26T20:51:22.485Z,17.81
2022-07-26T20:53:50.726Z,17.66
2022-07-26T20:56:19.086Z,17.58
2022-07-26T20:58:48.935Z,17.49
2022-07-26T21:01:19.960Z,17.39
2022-07-26T21:03:47.992Z,17.41
2022-07-26T21:06:19.123Z,17.44
2022-07-26T21:08:47.198Z,17.43
2022-07-26T21:11:19.272Z,17.40
2022-07-26T21:13:50.861Z,17.35
2022-07-26T21:16:24.295Z,17.29
2022-07-26T21:18:52.905Z,17.31
2022-07-26T21:21:21.340Z,17.34
2022-07-26T21:23:54.010Z,17.27
2022-07-26T21:26:22.039Z,17.23
2022-07-26T21:28:51.650Z,17.21
2022-07-26T21:31:20.389Z,17.22
2022-07-26T21:33:50.753Z,17.22
2022-07-26T21:36:19.753Z,17.18
2022-07-26T21:38:50.925Z,17.10
2022-07-26T21:41:18.892Z,17.04
2022-07-26T21:44:08.451Z,16.96
2022-07-26T21:46:36.551Z,16.79
2022-07-26T21:49:07.557Z,16.80
2022-07-26T21:51:36.261Z,16.83
2022-07-26T21:54:04.492Z,16.79
2022-07-26T21:56:34.728Z,16.81
2022-07-26T21:59:06.983Z,16.83
2022-07-26T22:01:41.088Z,16.85
2022-07-26T22:04:10.157Z,16.85
2022-07-26T22:06:41.318Z,16.85
2022-07-26T22:09:10.335Z,16.89
2022-07-26T22:11:48.902Z,16.89
2022-07-26T22:14:18.126Z,16.86
2022-07-26T22:16:47.545Z,16.86
2022-07-26T22:19:15.578Z,16.77
2022-07-26T22:21:43.401Z,16.76
2022-07-26T22:24:20.498Z,16.71
2022-07-26T22:26:48.559Z,16.67
2022-07-26T22:29:19.500Z,16.58
2022-07-26T22:31:50.548Z,16.57
2022-07-26T22:34:18.428Z,16.55
2022-07-26T22:36:46.335Z,16.52
2022-07-26T22:39:14.765Z,16.50
2022-07-26T22:42:12.840Z,16.50
2022-07-26T22:44:35.131Z,16.46
2022-07-26T22:47:03.133Z,16.44
2022-07-26T22:49:31.223Z,16.31
2022-07-26T22:51:59.237Z,16.37
2022-07-26T22:54:33.287Z,16.32
2022-07-26T22:57:01.144Z,16.25
2022-07-26T22:59:32.104Z,16.23
2022-07-26T23:02:04.572Z,16.22
2022-07-26T23:04:35.216Z,16.19
2022-07-26T23:07:03.187Z,16.16
2022-07-26T23:09:38.087Z,16.14
2022-07-26T23:12:07.970Z,16.10
2022-07-26T23:14:36.404Z,16.07
2022-07-26T23:17:05.744Z,16.04
2022-07-26T23:19:33.678Z,16.02
2022-07-26T23:22:01.665Z,15.94
2022-07-26T23:24:31.842Z,15.93
2022-07-26T23:26:59.850Z,15.89
2022-07-26T23:29:30.149Z,15.87
2022-07-26T23:31:58.455Z,15.84
2022-07-26T23:34:31.809Z,15.83
2022-07-26T23:36:59.819Z,15.80
2022-07-26T23:39:28.373Z,15.78
2022-07-26T23:42:02.675Z,15.76
2022-07-26T23:44:35.352Z,15.78
2022-07-26T23:47:03.329Z,15.74
2022-07-26T23:49:32.681Z,15.73
2022-07-26T23:52:17.489Z,15.71
2022-07-26T23:57:27.191Z,15.71
2022-07-26T23:59:57.594Z,15.70
